createdAt,value
2023-04-23T00:01:45.408Z,54.72
2023-04-23T00:04:12.436Z,55.03
2023-04-23T00:06:40.007Z,57.78
2023-04-23T00:09:08.005Z,54.78
2023-04-23T00:11:34.691Z,63.30
2023-04-23T00:14:01.381Z,52.95
2023-04-23T00:16:28.441Z,57.53
2023-04-23T00:18:54.825Z,60.75
2023-04-23T00:21:21.354Z,59.63
2023-04-23T00:23:47.748Z,61.30
2023-04-23T00:26:14.156Z,58.65
2023-04-23T00:28:40.648Z,64.25
2023-04-23T00:31:07.874Z,59.78
2023-04-23T00:33:34.378Z,63.75
2023-04-23T00:36:00.946Z,57.08
2023-04-23T00:38:27.545Z,58.58
2023-04-23T00:40:54.043Z,62.20
2023-04-23T00:43:20.650Z,67.13
2023-04-23T00:45:47.961Z,64.70
2023-04-23T00:48:14.934Z,63.35
2023-04-23T00:50:42.127Z,61.83
2023-04-23T00:53:09.019Z,59.05
2023-04-23T00:55:35.517Z,59.97
2023-04-23T00:58:02.217Z,60.80
2023-04-23T01:00:29.675Z,60.28
2023-04-23T01:02:58.300Z,58.40
2023-04-23T01:05:25.646Z,61.92
2023-04-23T01:07:52.213Z,65.95
2023-04-23T01:10:19.022Z,59.50
2023-04-23T01:12:45.990Z,59.20
2023-04-23T01:15:12.456Z,61.03
2023-04-23T01:17:39.087Z,62.17
2023-04-23T01:20:06.613Z,59.97
2023-04-23T01:22:36.515Z,58.87
2023-04-23T01:25:04.252Z,58.17
2023-04-23T01:27:31.114Z,59.72
2023-04-23T01:29:58.312Z,63.15
2023-04-23T01:32:25.074Z,68.32
2023-04-23T01:34:53.951Z,62.85
2023-04-23T01:37:21.256Z,66.80
2023-04-23T01:39:47.730Z,65.53
2023-04-23T01:42:14.697Z,66.43
2023-04-23T01:44:41.750Z,64.93
2023-04-23T01:47:08.496Z,66.00
2023-04-23T01:49:34.990Z,68.05
2023-04-23T01:52:01.669Z,65.95
2023-04-23T01:54:28.092Z,69.38
2023-04-23T01:56:56.030Z,68.82
2023-04-23T01:59:22.789Z,73.88
2023-04-23T02:01:50.150Z,66.70
2023-04-23T02:04:17.828Z,70.05
2023-04-23T02:06:47.681Z,66.20
2023-04-23T02:09:14.604Z,66.65
2023-04-23T02:11:41.205Z,69.38
2023-04-23T02:14:08.972Z,71.55
2023-04-23T02:16:36.506Z,68.30
2023-04-23T02:19:03.409Z,67.70
2023-04-23T02:21:30.119Z,71.63
2023-04-23T02:23:57.372Z,71.57
2023-04-23T02:26:25.132Z,70.47
2023-04-23T02:28:51.725Z,67.70
2023-04-23T02:31:18.762Z,74.70
2023-04-23T02:33:46.879Z,72.07
2023-04-23T02:36:13.283Z,70.80
2023-04-23T02:38:42.390Z,72.63
2023-04-23T02:41:08.961Z,69.57
2023-04-23T02:43:35.591Z,70.20
2023-04-23T02:46:08.614Z,78.85
2023-04-23T02:48:40.798Z,70.15
2023-04-23T02:51:09.826Z,72.60
2023-04-23T02:53:36.465Z,73.65
2023-04-23T02:56:03.022Z,73.78
2023-04-23T02:58:29.346Z,71.00
2023-04-23T03:00:55.927Z,69.80
2023-04-23T03:03:22.556Z,72.68
2023-04-23T03:05:49.046Z,70.03
2023-04-23T03:08:15.774Z,69.45
2023-04-23T03:10:42.231Z,71.82
2023-04-23T03:13:08.741Z,68.63
2023-04-23T03:15:35.421Z,71.38
2023-04-23T03:18:02.078Z,67.85
2023-04-23T03:20:28.506Z,68.00
2023-04-23T03:22:55.087Z,65.07
2023-04-23T03:25:23.728Z,65.03
2023-04-23T03:27:50.133Z,63.20
2023-04-23T03:30:16.839Z,65.00
2023-04-23T03:32:43.273Z,65.05
2023-04-23T03:35:10.017Z,61.85
2023-04-23T03:37:36.798Z,62.72
2023-04-23T03:40:07.447Z,64.72
2023-04-23T03:42:34.305Z,65.85
2023-04-23T03:45:01.550Z,66.75
2023-04-23T03:47:28.019Z,64.10
2023-04-23T03:49:54.862Z,57.45
2023-04-23T03:52:21.486Z,60.70
2023-04-23T03:54:47.860Z,57.15
2023-04-23T03:57:14.458Z,64.00
2023-04-23T03:59:40.810Z,59.92
2023-04-23T04:02:07.455Z,61.05
2023-04-23T04:04:34.566Z,58.53
2023-04-23T04:07:01.360Z,62.55
2023-04-23T04:09:28.728Z,58.75
2023-04-23T04:11:55.737Z,57.90
2023-04-23T04:14:23.324Z,53.75
2023-04-23T04:16:49.789Z,56.72
2023-04-23T04:19:16.302Z,47.85
2023-04-23T04:21:42.701Z,47.63
2023-04-23T04:24:11.549Z,48.42
2023-04-23T04:26:38.020Z,50.30
2023-04-23T04:29:04.616Z,52.45
2023-04-23T04:31:31.365Z,55.10
2023-04-23T04:33:58.343Z,46.50
2023-04-23T04:36:29.080Z,47.72
2023-04-23T04:38:58.670Z,43.20
2023-04-23T04:41:25.942Z,45.63
2023-04-23T04:43:52.718Z,44.55
2023-04-23T04:46:20.636Z,45.70
2023-04-23T04:48:48.104Z,43.10
2023-04-23T04:51:14.567Z,45.28
2023-04-23T04:53:41.215Z,43.80
2023-04-23T04:56:08.111Z,44.28
2023-04-23T04:58:34.777Z,45.28
2023-04-23T05:01:01.502Z,44.80
2023-04-23T05:03:28.267Z,42.15
2023-04-23T05:05:58.995Z,41.13
2023-04-23T05:08:25.555Z,37.40
2023-04-23T05:10:54.168Z,38.25
2023-04-23T05:15:47.004Z,37.08
2023-04-23T05:18:13.601Z,36.47
2023-04-23T05:20:41.310Z,36.83
2023-04-23T05:23:07.692Z,38.47
2023-04-23T05:25:35.813Z,38.53
2023-04-23T05:28:02.363Z,35.60
2023-04-23T05:30:29.033Z,35.22
2023-04-23T05:32:55.696Z,36.22
2023-04-23T05:35:22.154Z,35.42
2023-04-23T05:37:48.878Z,36.00
2023-04-23T05:40:15.428Z,35.47
2023-04-23T05:42:41.892Z,35.40
2023-04-23T05:45:09.432Z,35.15
2023-04-23T05:47:36.578Z,34.45
2023-04-23T05:50:03.048Z,33.55
2023-04-23T05:52:33.295Z,33.35
2023-04-23T05:54:59.612Z,34.80
2023-04-23T05:57:26.460Z,37.38
2023-04-23T05:59:52.867Z,32.30
2023-04-23T06:02:20.891Z,37.08
2023-04-23T06:04:49.148Z,34.63
2023-04-23T06:07:16.335Z,33.72
2023-04-23T06:09:42.742Z,33.40
2023-04-23T06:12:11.644Z,31.98
2023-04-23T06:14:38.092Z,33.10
2023-04-23T06:17:04.724Z,32.05
2023-04-23T06:19:31.427Z,29.80
2023-04-23T06:21:58.018Z,28.63
2023-04-23T06:24:24.397Z,29.45
2023-04-23T06:26:50.978Z,26.58
2023-04-23T06:29:17.607Z,26.23
2023-04-23T06:31:44.053Z,27.00
2023-04-23T06:34:10.612Z,25.30
2023-04-23T06:36:36.936Z,23.48
2023-04-23T06:39:03.557Z,23.20
2023-04-23T06:41:30.052Z,24.40
2023-04-23T06:43:58.625Z,21.73
2023-04-23T06:48:52.636Z,17.95
2023-04-23T06:51:19.095Z,19.30
2023-04-23T06:53:47.151Z,20.42
2023-04-23T06:56:13.567Z,17.10
2023-04-23T06:58:41.292Z,17.10
2023-04-23T07:01:08.014Z,18.35
2023-04-23T07:03:34.554Z,21.05
2023-04-23T07:06:01.342Z,17.55
2023-04-23T07:08:27.694Z,18.27
2023-04-23T07:10:54.340Z,16.33
2023-04-23T07:13:20.726Z,18.52
2023-04-23T07:15:47.199Z,17.42
2023-04-23T07:18:13.695Z,14.63
2023-04-23T07:20:40.245Z,15.10
2023-04-23T07:23:09.176Z,15.70
2023-04-23T07:25:35.758Z,16.42
2023-04-23T07:28:02.396Z,14.55
2023-04-23T07:30:31.066Z,15.63
2023-04-23T07:32:57.736Z,14.02
2023-04-23T07:35:26.880Z,13.55
2023-04-23T07:37:56.016Z,13.65
2023-04-23T07:40:23.123Z,13.32
2023-04-23T07:42:53.694Z,13.07
2023-04-23T07:45:20.155Z,17.05
2023-04-23T07:47:46.848Z,12.05
2023-04-23T07:50:14.016Z,13.65
2023-04-23T07:52:40.419Z,11.95
2023-04-23T07:55:07.838Z,13.63
2023-04-23T07:57:34.175Z,12.77
2023-04-23T08:00:00.813Z,12.25
2023-04-23T08:02:27.685Z,10.60
2023-04-23T08:04:54.381Z,10.55
2023-04-23T08:07:24.021Z,11.73
2023-04-23T08:09:50.753Z,12.35
2023-04-23T08:12:19.384Z,13.05
2023-04-23T08:14:47.312Z,12.38
2023-04-23T08:17:13.719Z,14.07
2023-04-23T08:19:40.240Z,9.43
2023-04-23T08:22:09.911Z,12.85
2023-04-23T08:24:36.543Z,11.48
2023-04-23T08:27:03.012Z,13.60
2023-04-23T08:29:29.428Z,10.68
2023-04-23T08:31:56.106Z,9.70
2023-04-23T08:34:22.788Z,12.05
2023-04-23T08:36:51.985Z,10.02
2023-04-23T08:39:18.673Z,11.40
2023-04-23T08:41:52.393Z,9.80
2023-04-23T08:44:23.349Z,7.85
2023-04-23T08:46:52.829Z,7.85
2023-04-23T08:49:20.688Z,7.93
2023-04-23T08:51:53.235Z,9.10
2023-04-23T08:54:27.172Z,6.88
2023-04-23T08:57:00.821Z,6.97
2023-04-23T08:59:31.898Z,10.52
2023-04-23T09:02:00.898Z,7.45
2023-04-23T09:04:28.339Z,9.68
2023-04-23T09:06:56.262Z,8.10
2023-04-23T09:09:23.817Z,7.18
2023-04-23T09:11:51.732Z,8.43
2023-04-23T09:14:19.837Z,8.38
2023-04-23T09:16:46.449Z,9.80
2023-04-23T09:19:13.634Z,8.48
2023-04-23T09:21:43.018Z,7.15
2023-04-23T09:24:13.110Z,6.35
2023-04-23T09:26:47.016Z,9.30
2023-04-23T09:29:17.353Z,9.88
2023-04-23T09:31:49.612Z,10.85
2023-04-23T09:34:18.247Z,7.28
2023-04-23T09:37:19.200Z,41.78
2023-04-23T09:39:57.204Z,15.50
2023-04-23T09:42:24.304Z,18.80
2023-04-23T09:44:58.722Z,43.67
2023-04-23T09:47:25.975Z,29.77
2023-04-23T09:49:53.127Z,7.88
2023-04-23T09:52:19.685Z,49.38
2023-04-23T09:54:46.682Z,9.32
2023-04-23T09:57:13.821Z,8.82
2023-04-23T10:02:13.383Z,6.13
2023-04-23T10:04:40.448Z,10.55
2023-04-23T10:07:18.924Z,4.10
2023-04-23T10:09:48.155Z,5.82
2023-04-23T10:14:46.709Z,4.47
2023-04-23T10:17:13.765Z,5.32
2023-04-23T10:19:44.291Z,6.35
2023-04-23T10:24:48.606Z,6.45
2023-04-23T10:27:30.711Z,6.78
2023-04-23T10:30:06.434Z,6.47
2023-04-23T10:32:37.361Z,7.65
2023-04-23T10:35:04.712Z,6.97
2023-04-23T10:37:31.568Z,7.72
2023-04-23T10:40:04.601Z,4.15
2023-04-23T10:42:31.768Z,10.73
2023-04-23T10:45:04.785Z,6.85
2023-04-23T10:50:24.125Z,9.57
2023-04-23T10:52:53.355Z,5.20
2023-04-23T10:55:28.652Z,5.05
2023-04-23T10:58:06.307Z,4.43
2023-04-23T11:00:46.447Z,5.47
2023-04-23T11:03:44.477Z,10.85
2023-04-23T11:06:19.383Z,6.97
2023-04-23T11:08:53.703Z,7.82
2023-04-23T11:11:38.390Z,7.00
2023-04-23T11:14:14.156Z,5.20
2023-04-23T11:16:41.218Z,6.13
2023-04-23T11:19:17.303Z,5.55
2023-04-23T11:21:59.941Z,6.57
2023-04-23T11:24:41.514Z,6.57
2023-04-23T11:27:13.916Z,2.67
2023-04-23T11:29:42.345Z,2.78
2023-04-23T11:34:41.796Z,6.50
2023-04-23T11:37:10.873Z,4.82
2023-04-23T11:39:37.546Z,2.13
2023-04-23T11:42:06.339Z,3.80
2023-04-23T11:44:32.705Z,5.07
2023-04-23T11:47:02.091Z,4.47
2023-04-23T11:49:28.490Z,6.45
2023-04-23T11:51:55.006Z,5.03
2023-04-23T11:54:27.654Z,5.20
2023-04-23T11:56:55.207Z,5.43
2023-04-23T11:59:21.944Z,2.92
2023-04-23T12:01:51.790Z,4.68
2023-04-23T12:04:26.210Z,4.88
2023-04-23T12:06:54.924Z,3.25
2023-04-23T12:11:51.177Z,4.00
2023-04-23T12:14:20.987Z,4.18
2023-04-23T12:16:52.086Z,5.60
2023-04-23T12:19:20.998Z,2.92
2023-04-23T12:21:54.664Z,3.03
2023-04-23T12:24:52.563Z,4.03
2023-04-23T12:27:22.088Z,5.72
2023-04-23T12:29:49.390Z,2.75
2023-04-23T12:32:16.010Z,3.38
2023-04-23T12:34:53.340Z,2.72
2023-04-23T12:37:24.213Z,2.33
2023-04-23T12:39:50.811Z,3.85
2023-04-23T12:42:17.296Z,7.40
2023-04-23T12:44:45.087Z,5.70
2023-04-23T12:47:11.797Z,5.18
2023-04-23T12:49:40.685Z,8.18
2023-04-23T12:52:07.926Z,3.45
2023-04-23T12:54:40.752Z,2.45
2023-04-23T12:57:09.913Z,3.63
2023-04-23T12:59:36.404Z,2.42
2023-04-23T13:02:04.659Z,1.23
2023-04-23T13:04:33.170Z,2.03
2023-04-23T13:06:59.865Z,3.55
2023-04-23T13:09:28.375Z,1.38
2023-04-23T13:14:21.698Z,2.58
2023-04-23T13:16:48.970Z,4.13
2023-04-23T13:19:17.507Z,2.30
2023-04-23T13:24:10.753Z,3.10
2023-04-23T13:26:37.372Z,2.35
2023-04-23T13:29:03.857Z,1.05
2023-04-23T13:31:32.422Z,1.42
2023-04-23T13:36:25.547Z,1.27
2023-04-23T13:38:52.871Z,4.43
2023-04-23T13:41:19.714Z,3.05
2023-04-23T13:43:46.304Z,1.90
2023-04-23T13:46:14.434Z,3.10
2023-04-23T13:48:41.676Z,2.15
2023-04-23T13:51:17.974Z,2.78
2023-04-23T13:53:54.682Z,2.03
2023-04-23T13:56:21.058Z,2.00
2023-04-23T13:58:49.020Z,2.80
2023-04-23T14:01:16.175Z,3.30
2023-04-23T14:03:42.783Z,2.60
2023-04-23T14:06:11.513Z,1.50
2023-04-23T14:08:38.301Z,2.03
2023-04-23T14:11:04.929Z,2.38
2023-04-23T14:13:32.964Z,3.17
2023-04-23T14:16:02.041Z,1.95
2023-04-23T14:18:30.087Z,2.83
2023-04-23T14:20:58.096Z,10.07
2023-04-23T14:23:25.305Z,3.22
2023-04-23T14:26:04.307Z,2.28
2023-04-23T14:28:39.337Z,2.28
2023-04-23T14:31:06.280Z,3.15
2023-04-23T14:33:32.971Z,5.40
2023-04-23T14:36:00.217Z,4.40
2023-04-23T14:38:26.759Z,3.13
2023-04-23T14:40:55.712Z,2.25
2023-04-23T14:43:22.301Z,4.90
2023-04-23T14:45:48.817Z,1.85
2023-04-23T14:48:15.429Z,6.22
2023-04-23T14:50:42.153Z,2.63
2023-04-23T14:53:10.570Z,2.38
2023-04-23T14:58:03.433Z,3.67
2023-04-23T15:00:30.371Z,3.08
2023-04-23T15:02:57.211Z,3.05
2023-04-23T15:05:24.049Z,2.70
2023-04-23T15:07:51.831Z,2.22
2023-04-23T15:10:19.381Z,3.40
2023-04-23T15:12:53.480Z,1.75
2023-04-23T15:15:37.054Z,2.80
2023-04-23T15:18:07.793Z,3.10
2023-04-23T15:20:34.297Z,2.45
2023-04-23T15:23:00.962Z,4.43
2023-04-23T15:25:27.821Z,5.20
2023-04-23T15:28:00.069Z,3.42
2023-04-23T15:30:27.589Z,2.10
2023-04-23T15:32:57.573Z,3.80
2023-04-23T15:35:25.346Z,3.30
2023-04-23T15:37:54.466Z,3.17
2023-04-23T15:40:21.253Z,3.50
2023-04-23T15:42:50.106Z,2.45
2023-04-23T15:45:17.218Z,2.63
2023-04-23T15:47:46.257Z,3.58
2023-04-23T15:50:13.142Z,4.43
2023-04-23T15:52:41.393Z,3.55
2023-04-23T15:55:08.220Z,2.85
2023-04-23T15:57:34.835Z,5.70
2023-04-23T16:00:02.390Z,3.58
2023-04-23T16:02:28.976Z,3.20
2023-04-23T16:04:55.865Z,2.17
2023-04-23T16:07:22.418Z,3.35
2023-04-23T16:09:49.408Z,2.38
2023-04-23T16:12:15.776Z,4.18
2023-04-23T16:14:43.007Z,2.75
2023-04-23T16:17:09.814Z,2.42
2023-04-23T16:19:36.352Z,2.75
2023-04-23T16:22:02.769Z,6.45
2023-04-23T16:24:29.733Z,2.85
2023-04-23T16:26:56.148Z,3.03
2023-04-23T16:29:23.180Z,2.17
2023-04-23T16:31:50.416Z,2.40
2023-04-23T16:34:17.194Z,2.85
2023-04-23T16:36:44.895Z,1.77
2023-04-23T16:39:12.399Z,2.23
2023-04-23T16:41:39.759Z,1.38
2023-04-23T16:44:06.243Z,3.20
2023-04-23T16:46:33.024Z,3.20
2023-04-23T16:48:59.860Z,2.58
2023-04-23T16:51:27.056Z,3.63
2023-04-23T16:53:54.082Z,3.58
2023-04-23T16:56:20.952Z,4.68
2023-04-23T16:58:47.652Z,4.22
2023-04-23T17:01:14.842Z,2.45
2023-04-23T17:03:41.504Z,4.65
2023-04-23T17:06:10.013Z,3.13
2023-04-23T17:08:37.243Z,3.55
2023-04-23T17:11:11.578Z,3.65
2023-04-23T17:13:38.978Z,2.78
2023-04-23T17:16:05.518Z,1.52
2023-04-23T17:18:32.338Z,3.78
2023-04-23T17:20:58.744Z,2.22
2023-04-23T17:23:25.174Z,2.63
2023-04-23T17:25:51.936Z,1.88
2023-04-23T17:28:20.305Z,8.70
2023-04-23T17:30:50.826Z,6.70
2023-04-23T17:33:17.875Z,8.23
2023-04-23T17:35:44.326Z,4.50
2023-04-23T17:38:11.798Z,5.72
2023-04-23T17:40:39.423Z,2.00
2023-04-23T17:43:06.241Z,2.73
2023-04-23T17:45:32.721Z,1.95
2023-04-23T17:47:59.182Z,2.47
2023-04-23T17:50:25.746Z,4.28
2023-04-23T17:52:52.418Z,2.97
2023-04-23T17:55:21.737Z,3.80
2023-04-23T17:57:49.145Z,6.93
2023-04-23T18:00:17.407Z,2.55
2023-04-23T18:02:44.758Z,2.13
2023-04-23T18:05:14.721Z,4.18
2023-04-23T18:07:42.666Z,3.40
2023-04-23T18:10:13.996Z,3.22
2023-04-23T18:12:41.697Z,6.57
2023-04-23T18:15:11.274Z,3.33
2023-04-23T18:17:39.428Z,6.38
2023-04-23T18:20:06.658Z,2.40
2023-04-23T18:22:33.493Z,4.28
2023-04-23T18:24:59.846Z,3.55
2023-04-23T18:27:34.644Z,6.00
2023-04-23T18:30:02.444Z,5.20
2023-04-23T18:32:35.162Z,2.72
2023-04-23T18:35:02.812Z,5.20
2023-04-23T18:37:44.006Z,3.13
2023-04-23T18:40:11.394Z,5.25
2023-04-23T18:42:39.246Z,6.28
2023-04-23T18:45:06.454Z,4.72
2023-04-23T18:47:38.739Z,3.08
2023-04-23T18:50:36.364Z,3.72
2023-04-23T18:53:03.165Z,4.80
2023-04-23T18:55:29.498Z,3.38
2023-04-23T18:57:56.170Z,4.30
2023-04-23T19:00:23.016Z,6.00
2023-04-23T19:02:52.532Z,4.10
2023-04-23T19:05:19.871Z,5.60
2023-04-23T19:07:48.224Z,6.88
2023-04-23T19:10:16.146Z,6.63
2023-04-23T19:12:43.597Z,5.05
2023-04-23T19:15:11.017Z,4.15
2023-04-23T19:17:38.698Z,2.50
2023-04-23T19:20:09.265Z,2.30
2023-04-23T19:22:35.911Z,3.17
2023-04-23T19:25:02.854Z,2.88
2023-04-23T19:27:29.213Z,3.03
2023-04-23T19:29:57.696Z,2.95
2023-04-23T19:34:52.140Z,2.90
2023-04-23T19:37:18.582Z,2.03
2023-04-23T19:39:45.461Z,2.58
2023-04-23T19:42:12.143Z,2.28
2023-04-23T19:44:38.718Z,5.90
2023-04-23T19:47:07.400Z,2.38
2023-04-23T19:49:33.955Z,2.30
2023-04-23T19:52:03.851Z,2.30
2023-04-23T19:54:30.572Z,3.33
2023-04-23T19:56:58.584Z,3.03
2023-04-23T19:59:25.182Z,1.80
2023-04-23T20:01:53.857Z,2.35
2023-04-23T20:06:48.689Z,2.25
2023-04-23T20:09:18.800Z,2.78
2023-04-23T20:11:46.053Z,1.65
2023-04-23T20:14:13.224Z,3.25
2023-04-23T20:16:42.758Z,1.58
2023-04-23T20:19:15.313Z,1.77
2023-04-23T20:21:42.936Z,3.35
2023-04-23T20:24:10.571Z,3.67
2023-04-23T20:26:41.403Z,2.37
2023-04-23T20:29:08.133Z,2.15
2023-04-23T20:31:37.318Z,2.05
2023-04-23T20:34:03.800Z,2.40
2023-04-23T20:36:33.125Z,2.25
2023-04-23T20:39:06.055Z,3.80
2023-04-23T20:41:36.438Z,3.10
2023-04-23T20:44:07.327Z,2.50
2023-04-23T20:46:33.812Z,3.03
2023-04-23T20:49:05.096Z,2.55
2023-04-23T20:51:35.240Z,2.70
2023-04-23T20:54:08.325Z,3.63
2023-04-23T20:56:35.944Z,2.95
2023-04-23T20:59:08.132Z,3.33
2023-04-23T21:01:37.964Z,2.38
2023-04-23T21:04:07.322Z,4.78
2023-04-23T21:06:34.297Z,1.20
2023-04-23T21:09:00.765Z,3.10
2023-04-23T21:11:28.825Z,2.03
2023-04-23T21:13:58.086Z,1.45
2023-04-23T21:16:27.324Z,1.48
2023-04-23T21:18:54.007Z,1.98
2023-04-23T21:21:27.314Z,1.02
2023-04-23T21:23:53.660Z,1.90
2023-04-23T21:26:21.076Z,2.25
2023-04-23T21:28:51.506Z,1.30
2023-04-23T21:31:30.128Z,1.63
2023-04-23T21:33:56.969Z,2.45
2023-04-23T21:36:23.945Z,2.33
2023-04-23T21:38:55.882Z,2.17
2023-04-23T21:41:22.297Z,2.20
2023-04-23T21:43:49.088Z,0.95
2023-04-23T21:46:16.139Z,2.28
2023-04-23T21:48:42.704Z,0.85
2023-04-23T21:51:09.351Z,2.08
2023-04-23T21:53:38.789Z,3.08
2023-04-23T21:56:06.720Z,1.00
2023-04-23T21:58:34.650Z,1.10
2023-04-23T22:01:01.469Z,1.98
2023-04-23T22:03:36.497Z,1.30
2023-04-23T22:06:06.821Z,1.08
2023-04-23T22:08:34.665Z,4.57
2023-04-23T22:11:01.107Z,1.40
2023-04-23T22:13:28.953Z,4.72
2023-04-23T22:15:58.573Z,1.50
2023-04-23T22:18:28.728Z,2.22
2023-04-23T22:20:57.250Z,1.95
2023-04-23T22:23:24.846Z,2.88
2023-04-23T22:25:54.114Z,3.22
2023-04-23T22:28:20.530Z,0.60
2023-04-23T22:30:48.813Z,3.38
2023-04-23T22:33:16.442Z,6.43
2023-04-23T22:35:44.956Z,0.90
2023-04-23T22:40:40.785Z,2.45
2023-04-23T22:46:02.696Z,0.38
2023-04-23T22:48:32.696Z,0.50
2023-04-23T22:50:59.231Z,3.13
2023-04-23T22:53:25.842Z,2.63
2023-04-23T22:55:52.707Z,2.10
2023-04-23T22:58:20.714Z,1.25
2023-04-23T23:00:47.734Z,1.67
2023-04-23T23:03:16.121Z,1.70
2023-04-23T23:05:42.866Z,1.77
2023-04-23T23:08:09.506Z,1.58
2023-04-23T23:10:35.965Z,0.80
2023-04-23T23:13:04.855Z,1.15
2023-04-23T23:15:33.337Z,0.55
2023-04-23T23:20:28.398Z,1.45
2023-04-23T23:22:57.106Z,0.77
2023-04-23T23:25:24.718Z,1.38
2023-04-23T23:27:51.542Z,0.57
2023-04-23T23:30:17.953Z,1.38
2023-04-23T23:32:47.341Z,0.63
2023-04-23T23:35:18.606Z,1.83
2023-04-23T23:37:47.948Z,1.95
2023-04-23T23:40:14.397Z,1.50
2023-04-23T23:42:43.304Z,0.82
2023-04-23T23:45:12.714Z,1.30
2023-04-23T23:47:43.899Z,1.67
2023-04-23T23:50:11.306Z,2.08
2023-04-23T23:52:37.760Z,0.90
2023-04-23T23:55:04.766Z,1.27
2023-04-23T23:57:31.438Z,0.68
2023-04-23T23:59:58.041Z,1.08
